ADDS METAR Data INFO
IDs: Format: Raw Decoded Include TAF

Data at: 1313 UTC 19 Jul 2018

KAPN 191254Z AUTO VRB03KT 10SM CLR 18/14 A3008 RMK AO2 SLP184 T01830139
KAPN 191154Z AUTO 29003KT 10SM CLR 14/13 A3008 RMK AO2 SLP184 T01440128 10150 20089 51003
KAPN 191054Z AUTO 00000KT 10SM CLR 11/10 A3007 RMK AO2 SLP185 T01060100
KAPN 190954Z AUTO 00000KT 10SM CLR 09/09 A3007 RMK AO2 SLP185 T00940089
KAPN 190854Z AUTO 00000KT 10SM CLR 10/09 A3007 RMK AO2 SLP181 T01000094 55002
KAPN 190754Z AUTO 00000KT 10SM CLR 10/10 A3006 RMK AO2 SLP180 T01000100
KAPN 190654Z AUTO 00000KT 10SM CLR 11/11 A3007 RMK AO2 SLP181 T01060106
KAPN 190554Z AUTO 00000KT 10SM CLR 12/11 A3007 RMK AO2 SLP182 T01170111 10200 20117 55002
KAPN 190454Z AUTO 00000KT 10SM CLR 13/12 A3007 RMK AO2 SLP182 T01280117 402500094
KAPN 190354Z AUTO 18004KT 10SM CLR 12/12 A3007 RMK AO2 SLP184 T01220117
KAPN 190254Z AUTO 00000KT 10SM CLR 14/12 A3008 RMK AO2 SLP184 T01440122 53003
KAPN 190154Z AUTO 16003KT 10SM CLR 17/12 A3006 RMK AO2 SLP180 T01670122
KAPN 190054Z AUTO 13003KT 10SM CLR 18/12 A3007 RMK AO2 SLP180 T01830122
KAPN 182354Z AUTO 10008KT 10SM CLR 20/12 A3007 RMK AO2 SLP182 T02000117 10250 20200 56008
KAPN 182254Z AUTO 11007KT 10SM CLR 21/12 A3007 RMK AO2 SLP184 T02110117
KAPN 182154Z AUTO 11008KT 10SM CLR 22/12 A3008 RMK AO2 SLP185 T02170122
KAPN 182054Z AUTO 12009KT 10SM CLR 22/12 A3009 RMK AO2 SLP191 T02220122 58004
KAPN 181954Z AUTO 09008KT 10SM CLR 23/13 A3010 RMK AO2 SLP191 T02280133
KAPN 181854Z AUTO 08008KT 10SM SCT055 23/14 A3011 RMK AO2 SLP195 T02330139
KAPN 181754Z AUTO VRB03KT 10SM BKN055 24/11 A3010 RMK AO2 SLP194 T02390106 10244 20122 58015
KAPN 181654Z AUTO VRB03KT 10SM FEW048 23/10 A3012 RMK AO2 SLP198 T02280100
KAPN 181554Z AUTO VRB03KT 10SM FEW038 SCT049 21/12 A3014 RMK AO2 SLP206 T02110117
KAPN 181454Z AUTO 00000KT 10SM FEW031 SCT048 21/12 A3015 RMK AO2 SLP209 T02060122 50002
KAPN 181354Z AUTO 27005KT 10SM FEW039 19/13 A3016 RMK AO2 SLP211 T01890133
KAPN 181254Z AUTO 00000KT 10SM CLR 16/12 A3015 RMK AO2 SLP209 T01610122
KAPN 181154Z AUTO 26004KT 10SM CLR 12/11 A3014 RMK AO2 SLP207 T01220106 10133 20094 52005
KAPN 181054Z AUTO 00000KT 10SM CLR 11/10 A3014 RMK AO2 SLP207 T01060100
KAPN 180954Z AUTO 00000KT 10SM CLR 09/09 A3013 RMK AO2 SLP203 T00940094
KAPN 180854Z AUTO 00000KT 10SM CLR 11/11 A3013 RMK AO2 SLP202 T01110106 51003
KAPN 180754Z AUTO 00000KT 10SM CLR 12/11 A3013 RMK AO2 SLP201 T01170111
KAPN 180654Z AUTO 29003KT 10SM FEW050 13/12 A3012 RMK AO2 SLP200 T01280117
KAPN 180554Z AUTO 00000KT 10SM CLR 13/12 A3012 RMK AO2 SLP198 T01330117 10217 20133 51013
KAPN 180454Z AUTO 34006KT 10SM FEW050 15/12 A3010 RMK AO2 SLP192 T01500122 402500133
KAPN 180354Z AUTO 32005KT 10SM CLR 16/12 A3010 RMK AO2 SLP190 T01560122
KAPN 180254Z AUTO 32005KT 10SM CLR 17/12 A3008 RMK AO2 SLP184 T01670122 53013
KAPN 180154Z AUTO 32006KT 10SM CLR 18/12 A3007 RMK AO2 SLP180 T01830122